KJRB/JRB METAR and TAF weather

Enter ICAO airport designator
Station Type Date Time Source
KJRB METAR 2019/11/22 00:56 UTC NOAA

KJRB 220056Z AUTO 23006KT FEW120 10/03 A3008 RMK AO2 SLP188 T01000028 PWINO


Station Type Date Time Source
KJRB Decoded METAR 2019/11/22 00:56 UTC NOAA

Station name not available
Nov 21, 2019 - 07:56 PM EST / 2019.11.22 0056 UTC
Wind: from the SW (230 degrees) at 7 MPH (6 KT):0
Sky conditions: mostly clear
Temperature: 50.0 F (10.0 C)
Dew Point: 37.0 F (2.8 C)
Relative Humidity: 60%
Pressure (altimeter): 30.08 in. Hg (1018 hPa)
ob: KJRB 220056Z AUTO 23006KT FEW120 10/03 A3008 RMK AO2 SLP188 T01000028 PWINO
cycle: 1

Station Type Date Time Source
KJRB TAF UTC NOAA

Error!

Example: see airport list